createdAt,value
2023-03-22T00:00:27.479Z,57.96
2023-03-22T00:02:56.142Z,58.35
2023-03-22T00:05:22.797Z,58.48
2023-03-22T00:07:50.343Z,56.87
2023-03-22T00:10:17.789Z,58.34
2023-03-22T00:12:44.369Z,58.94
2023-03-22T00:15:11.312Z,58.03
2023-03-22T00:17:38.292Z,58.45
2023-03-22T00:20:06.480Z,58.67
2023-03-22T00:22:33.390Z,58.27
2023-03-22T00:25:00.137Z,57.51
2023-03-22T00:27:26.990Z,57.41
2023-03-22T00:29:53.601Z,56.37
2023-03-22T00:32:20.195Z,57.17
2023-03-22T00:34:47.598Z,57.63
2023-03-22T00:37:16.571Z,57.34
2023-03-22T00:39:43.473Z,58.27
2023-03-22T00:42:10.434Z,56.41
2023-03-22T00:44:37.033Z,57.89
2023-03-22T00:47:03.706Z,57.22
2023-03-22T00:49:31.286Z,57.51
2023-03-22T00:51:57.868Z,57.37
2023-03-22T00:54:24.768Z,57.10
2023-03-22T00:56:51.380Z,56.83
2023-03-22T00:59:18.034Z,56.73
2023-03-22T01:01:44.632Z,57.37
2023-03-22T01:04:15.448Z,57.81
2023-03-22T01:06:42.068Z,56.56
2023-03-22T01:09:08.597Z,57.54
2023-03-22T01:11:35.220Z,57.30
2023-03-22T01:14:01.814Z,57.03
2023-03-22T01:16:28.354Z,55.31
2023-03-22T01:18:54.860Z,55.52
2023-03-22T01:21:22.845Z,56.13
2023-03-22T01:23:49.464Z,56.32
2023-03-22T01:26:16.183Z,56.31
2023-03-22T01:28:42.786Z,56.75
2023-03-22T01:31:09.330Z,55.24
2023-03-22T01:33:36.638Z,53.93
2023-03-22T01:36:03.757Z,53.88
2023-03-22T01:38:30.487Z,55.80
2023-03-22T01:40:57.415Z,55.45
2023-03-22T01:43:23.971Z,56.08
2023-03-22T01:45:51.930Z,56.59
2023-03-22T01:48:25.519Z,55.44
2023-03-22T01:50:59.766Z,55.31
2023-03-22T01:53:26.819Z,56.15
2023-03-22T01:55:53.986Z,58.65
2023-03-22T01:58:20.978Z,57.28
2023-03-22T02:00:48.332Z,57.84
2023-03-22T02:03:18.170Z,57.96
2023-03-22T02:05:44.746Z,56.59
2023-03-22T02:08:15.112Z,57.47
2023-03-22T02:10:42.054Z,59.41
2023-03-22T02:13:42.914Z,57.93
2023-03-22T02:16:15.717Z,59.45
2023-03-22T02:19:08.963Z,58.67
2023-03-22T02:21:41.491Z,58.48
2023-03-22T02:24:17.138Z,57.45
2023-03-22T02:26:44.020Z,59.44
2023-03-22T02:29:13.935Z,60.23
2023-03-22T02:32:14.383Z,59.42
2023-03-22T02:35:10.408Z,60.17
2023-03-22T02:37:36.914Z,59.90
2023-03-22T02:40:15.614Z,60.73
2023-03-22T02:43:09.051Z,60.17
2023-03-22T02:45:45.754Z,59.66
2023-03-22T02:48:42.242Z,59.67
2023-03-22T02:51:17.713Z,60.02
2023-03-22T02:54:01.985Z,59.70
2023-03-22T02:56:36.127Z,59.40
2023-03-22T02:59:04.829Z,60.51
2023-03-22T03:01:36.386Z,59.75
2023-03-22T03:04:06.221Z,60.24
2023-03-22T03:06:39.874Z,60.66
2023-03-22T03:09:07.325Z,61.12
2023-03-22T03:11:33.871Z,62.11
2023-03-22T03:14:00.900Z,61.04
2023-03-22T03:16:29.624Z,60.68
2023-03-22T03:19:03.956Z,60.42
2023-03-22T03:21:42.585Z,60.90
2023-03-22T03:24:28.456Z,61.19
2023-03-22T03:27:04.711Z,61.01
2023-03-22T03:30:03.542Z,60.34
2023-03-22T03:32:35.496Z,60.35
2023-03-22T03:35:22.298Z,60.12
2023-03-22T03:38:10.245Z,60.93
2023-03-22T03:40:40.896Z,60.49
2023-03-22T03:43:08.974Z,60.53
2023-03-22T03:45:36.980Z,61.31
2023-03-22T03:48:09.650Z,60.60
2023-03-22T03:50:36.452Z,60.97
2023-03-22T03:53:03.583Z,60.42
2023-03-22T03:55:30.977Z,60.86
2023-03-22T03:57:57.570Z,60.82
2023-03-22T04:00:24.176Z,60.87
2023-03-22T04:02:50.734Z,60.46
2023-03-22T04:05:17.492Z,62.33
2023-03-22T04:07:44.228Z,61.84
2023-03-22T04:10:11.060Z,63.06
2023-03-22T04:12:38.506Z,63.15
2023-03-22T04:15:05.664Z,62.44
2023-03-22T04:17:32.933Z,62.42
2023-03-22T04:19:59.436Z,62.82
2023-03-22T04:22:26.710Z,64.03
2023-03-22T04:24:53.326Z,63.34
2023-03-22T04:27:21.754Z,63.83
2023-03-22T04:29:48.661Z,64.25
2023-03-22T04:32:18.749Z,63.99
2023-03-22T04:34:46.609Z,64.13
2023-03-22T04:37:14.223Z,63.82
2023-03-22T04:39:41.200Z,63.56
2023-03-22T04:42:08.241Z,63.54
2023-03-22T04:44:35.489Z,62.67
2023-03-22T04:47:02.064Z,62.57
2023-03-22T04:49:28.707Z,63.40
2023-03-22T04:51:56.017Z,64.01
2023-03-22T04:54:23.006Z,63.96
2023-03-22T04:56:50.475Z,63.83
2023-03-22T04:59:20.194Z,63.31
2023-03-22T05:01:48.009Z,63.71
2023-03-22T05:04:15.562Z,65.01
2023-03-22T05:06:42.455Z,64.79
2023-03-22T05:09:09.697Z,65.81
2023-03-22T05:11:36.293Z,65.49
2023-03-22T05:14:02.893Z,65.78
2023-03-22T05:16:29.570Z,64.64
2023-03-22T05:18:56.602Z,65.17
2023-03-22T05:21:28.242Z,65.38
2023-03-22T05:23:58.938Z,64.93
2023-03-22T05:26:26.736Z,64.69
2023-03-22T05:28:54.364Z,64.99
2023-03-22T05:31:22.086Z,65.08
2023-03-22T05:33:50.477Z,63.49
2023-03-22T05:36:21.547Z,63.28
2023-03-22T05:38:48.045Z,63.91
2023-03-22T05:41:14.719Z,62.84
2023-03-22T05:43:41.468Z,62.74
2023-03-22T05:46:12.096Z,62.92
2023-03-22T05:48:39.680Z,63.33
2023-03-22T05:51:13.447Z,63.45
2023-03-22T05:53:40.311Z,63.26
2023-03-22T05:56:09.904Z,62.77
2023-03-22T05:58:36.908Z,62.50
2023-03-22T06:01:23.073Z,62.33
2023-03-22T06:03:50.277Z,62.06
2023-03-22T06:06:17.136Z,61.80
2023-03-22T06:08:44.125Z,62.30
2023-03-22T06:11:10.821Z,61.29
2023-03-22T06:13:37.915Z,60.97
2023-03-22T06:16:05.033Z,62.43
2023-03-22T06:18:32.983Z,61.25
2023-03-22T06:21:00.483Z,62.09
2023-03-22T06:23:27.746Z,62.68
2023-03-22T06:25:54.405Z,61.94
2023-03-22T06:28:21.141Z,61.75
2023-03-22T06:30:48.043Z,61.56
2023-03-22T06:33:14.862Z,61.77
2023-03-22T06:35:41.717Z,61.44
2023-03-22T06:38:08.267Z,61.83
2023-03-22T06:40:35.784Z,59.74
2023-03-22T06:43:06.397Z,60.74
2023-03-22T06:45:33.620Z,60.40
2023-03-22T06:48:01.141Z,60.00
2023-03-22T06:50:28.988Z,60.06
2023-03-22T06:52:56.038Z,59.41
2023-03-22T06:55:22.996Z,59.44
2023-03-22T06:57:49.605Z,59.35
2023-03-22T07:00:16.791Z,59.02
2023-03-22T07:02:43.497Z,59.16
2023-03-22T07:05:10.717Z,58.66
2023-03-22T07:07:37.272Z,58.42
2023-03-22T07:10:04.590Z,59.05
2023-03-22T07:12:32.193Z,59.12
2023-03-22T07:14:58.905Z,58.67
2023-03-22T07:17:25.466Z,57.36
2023-03-22T07:19:51.948Z,57.80
2023-03-22T07:22:21.522Z,57.72
2023-03-22T07:24:57.742Z,57.13
2023-03-22T07:27:26.121Z,56.59
2023-03-22T07:29:55.360Z,58.08
2023-03-22T07:32:21.977Z,58.72
2023-03-22T07:34:48.831Z,58.45
2023-03-22T07:37:15.573Z,58.39
2023-03-22T07:39:42.247Z,58.47
2023-03-22T07:42:09.542Z,58.18
2023-03-22T07:44:36.286Z,57.30
2023-03-22T07:47:03.103Z,55.16
2023-03-22T07:49:31.327Z,57.27
2023-03-22T07:51:57.975Z,57.34
2023-03-22T07:54:33.329Z,56.60
2023-03-22T07:57:01.303Z,56.60
2023-03-22T07:59:28.495Z,56.25
2023-03-22T08:01:55.261Z,56.29
2023-03-22T08:04:22.548Z,56.15
2023-03-22T08:06:50.042Z,54.50
2023-03-22T08:09:17.451Z,54.70
2023-03-22T08:11:44.056Z,53.80
2023-03-22T08:14:10.849Z,53.49
2023-03-22T08:16:38.392Z,53.20
2023-03-22T08:19:05.302Z,51.98
2023-03-22T08:21:33.282Z,52.38
2023-03-22T08:24:00.367Z,51.88
2023-03-22T08:26:27.825Z,52.46
2023-03-22T08:28:54.608Z,51.61
2023-03-22T08:31:21.295Z,50.16
2023-03-22T08:33:48.211Z,48.46
2023-03-22T08:36:20.238Z,47.57
2023-03-22T08:38:47.784Z,50.07
2023-03-22T08:41:15.929Z,50.47
2023-03-22T08:43:43.095Z,51.55
2023-03-22T08:46:09.597Z,49.51
2023-03-22T08:48:37.889Z,49.28
2023-03-22T08:51:06.599Z,48.15
2023-03-22T08:53:33.248Z,47.30
2023-03-22T08:56:01.709Z,46.65
2023-03-22T08:58:28.561Z,48.93
2023-03-22T09:00:55.781Z,49.62
2023-03-22T09:03:24.024Z,49.93
2023-03-22T09:05:51.305Z,49.73
2023-03-22T09:08:19.516Z,48.32
2023-03-22T09:10:52.045Z,47.37
2023-03-22T09:13:19.626Z,47.11
2023-03-22T09:15:47.147Z,46.26
2023-03-22T09:18:14.328Z,46.43
2023-03-22T09:20:41.310Z,47.00
2023-03-22T09:23:08.122Z,46.29
2023-03-22T09:25:35.038Z,44.39
2023-03-22T09:28:02.249Z,44.69
2023-03-22T09:30:28.802Z,45.64
2023-03-22T09:32:55.369Z,46.24
2023-03-22T09:35:22.406Z,44.43
2023-03-22T09:37:49.536Z,43.60
2023-03-22T09:40:17.723Z,43.12
2023-03-22T09:42:50.178Z,42.49
2023-03-22T09:45:20.542Z,42.88
2023-03-22T09:47:50.421Z,41.29
2023-03-22T09:50:29.432Z,40.42
2023-03-22T09:52:56.326Z,38.34
2023-03-22T09:55:29.036Z,36.37
2023-03-22T09:58:05.875Z,38.92
2023-03-22T10:00:42.505Z,40.98
2023-03-22T10:03:24.921Z,39.63
2023-03-22T10:05:58.281Z,41.02
2023-03-22T10:08:24.836Z,39.92
2023-03-22T10:10:52.888Z,39.61
2023-03-22T10:13:36.902Z,38.22
2023-03-22T10:16:07.032Z,39.20
2023-03-22T10:18:39.337Z,41.95
2023-03-22T10:21:08.578Z,42.80
2023-03-22T10:23:44.999Z,41.83
2023-03-22T10:26:45.501Z,40.37
2023-03-22T10:29:18.206Z,35.28
2023-03-22T10:31:45.977Z,32.55
2023-03-22T10:34:33.825Z,29.69
2023-03-22T10:37:04.052Z,27.56
2023-03-22T10:39:34.140Z,28.93
2023-03-22T10:42:03.485Z,30.01
2023-03-22T10:44:34.761Z,32.82
2023-03-22T10:47:07.858Z,33.29
2023-03-22T10:49:42.131Z,35.25
2023-03-22T10:52:23.128Z,37.18
2023-03-22T10:54:49.645Z,38.90
2023-03-22T10:57:17.394Z,37.72
2023-03-22T10:59:51.744Z,37.40
2023-03-22T11:02:28.208Z,36.86
2023-03-22T11:05:00.176Z,34.98
2023-03-22T11:07:41.420Z,34.41
2023-03-22T11:10:08.006Z,37.81
2023-03-22T11:12:40.969Z,38.38
2023-03-22T11:15:19.563Z,39.51
2023-03-22T11:17:46.402Z,39.57
2023-03-22T11:20:17.762Z,36.36
2023-03-22T11:22:47.026Z,36.09
2023-03-22T11:25:27.501Z,39.32
2023-03-22T11:27:57.723Z,39.89
2023-03-22T11:30:26.936Z,38.30
2023-03-22T11:33:17.087Z,35.70
2023-03-22T11:35:46.640Z,34.83
2023-03-22T11:38:24.470Z,33.94
2023-03-22T11:40:56.833Z,32.16
2023-03-22T11:43:25.266Z,33.73
2023-03-22T11:45:56.779Z,34.38
2023-03-22T11:48:27.063Z,33.49
2023-03-22T11:50:56.167Z,35.47
2023-03-22T11:53:25.886Z,35.59
2023-03-22T11:55:54.806Z,35.91
2023-03-22T11:58:24.419Z,35.95
2023-03-22T12:00:52.805Z,37.75
2023-03-22T12:03:23.522Z,38.38
2023-03-22T12:05:51.646Z,39.21
2023-03-22T12:08:42.644Z,38.87
2023-03-22T12:11:14.985Z,38.84
2023-03-22T12:13:59.967Z,40.28
2023-03-22T12:16:36.215Z,39.59
2023-03-22T12:19:30.642Z,39.85
2023-03-22T12:21:57.356Z,39.71
2023-03-22T12:24:30.765Z,40.04
2023-03-22T12:27:03.511Z,41.57
2023-03-22T12:29:30.996Z,41.03
2023-03-22T12:32:07.200Z,41.66
2023-03-22T12:34:42.383Z,40.66
2023-03-22T12:37:14.435Z,40.22
2023-03-22T12:40:06.017Z,41.03
2023-03-22T12:42:52.750Z,40.23
2023-03-22T12:45:26.237Z,41.93
2023-03-22T12:47:56.893Z,42.78
2023-03-22T12:50:28.480Z,43.51
2023-03-22T12:52:57.010Z,44.51
2023-03-22T12:55:29.994Z,46.73
2023-03-22T12:57:57.961Z,48.06
2023-03-22T13:00:34.402Z,47.17
2023-03-22T13:03:18.778Z,47.81
2023-03-22T13:05:47.649Z,47.42
2023-03-22T13:08:22.424Z,44.32
2023-03-22T13:10:59.525Z,44.15
2023-03-22T13:13:27.716Z,43.82
2023-03-22T13:16:09.865Z,42.81
2023-03-22T13:18:37.549Z,42.70
2023-03-22T13:21:14.100Z,42.62
2023-03-22T13:23:55.825Z,43.90
2023-03-22T13:26:45.724Z,44.23
2023-03-22T13:29:18.821Z,43.45
2023-03-22T13:31:47.542Z,43.51
2023-03-22T13:34:18.161Z,43.48
2023-03-22T13:36:54.133Z,43.44
2023-03-22T13:39:23.270Z,43.42
2023-03-22T13:42:02.024Z,43.15
2023-03-22T13:44:38.173Z,43.47
2023-03-22T13:47:08.691Z,42.89
2023-03-22T13:49:54.211Z,43.63
2023-03-22T13:52:26.909Z,43.77
2023-03-22T13:54:55.188Z,43.84
2023-03-22T13:57:49.513Z,43.46
2023-03-22T14:00:31.456Z,42.91
2023-03-22T14:03:06.110Z,42.00
2023-03-22T14:05:36.498Z,42.85
2023-03-22T14:08:04.289Z,42.20
2023-03-22T14:10:44.686Z,41.40
2023-03-22T14:13:28.332Z,41.93
2023-03-22T14:15:57.538Z,42.82
2023-03-22T14:18:27.275Z,43.37
2023-03-22T14:20:57.892Z,41.63
